Time;durP1;ratioP1;P1;durP2;ratioP2;P2;SDS_P1;SDS_P2;PMS_P1;PMS_P2;Temp;Humidity;BMP_temperature;BMP_pressure;BME280_temperature;BME280_humidity;BME280_pressure;Samples;Min_cycle;Max_cycle;Signal;HPM_P1;HPM_P2
2023/04/23 00:00:12;;;;;;;4.40;3.50;;;;;;;18.61;53.83;98096.03;7028227;28;20771;-82
2023/04/23 00:03:34;;;;;;;3.73;3.37;;;;;;;18.64;54.31;98103.66;7028009;28;20250;-82
2023/04/23 00:06:57;;;;;;;4.67;4.27;;;;;;;18.93;53.51;98103.94;7028839;28;20214;-82
2023/04/23 00:10:20;;;;;;;3.90;3.60;;;;;;;18.66;53.33;98079.66;7028549;28;20344;-82
2023/04/23 00:13:43;;;;;;;3.43;3.13;;;;;;;18.96;51.16;98098.75;7028088;28;20220;-82
2023/04/23 00:17:05;;;;;;;4.47;3.70;;;;;;;18.79;51.94;98100.09;7029228;28;20284;-82
2023/04/23 00:20:26;;;;;;;4.80;3.27;;;;;;;18.92;49.14;98100.38;7037007;28;20205;-82
2023/04/23 00:23:48;;;;;;;3.10;2.77;;;;;;;19.26;47.23;98093.25;7044119;28;20248;-82
2023/04/23 00:27:10;;;;;;;6.10;3.30;;;;;;;19.27;47.70;98094.06;7040197;28;20205;-82
2023/04/23 00:30:32;;;;;;;4.53;3.07;;;;;;;18.90;47.67;98075.25;7030538;28;20366;-82
2023/04/23 00:33:54;;;;;;;5.20;3.03;;;;;;;19.49;46.13;98092.63;7029861;28;20233;-82
2023/04/23 00:37:16;;;;;;;3.57;2.70;;;;;;;19.01;46.83;98086.97;7030559;28;20303;-82
2023/04/23 00:40:37;;;;;;;3.10;2.80;;;;;;;19.44;46.40;98084.44;7006267;28;20263;-82
2023/04/23 00:44:00;;;;;;;4.37;2.80;;;;;;;19.58;45.63;98098.34;7001743;28;20755;-82
2023/04/23 00:47:22;;;;;;;5.67;2.83;;;;;;;18.99;46.64;98109.09;7002265;28;20706;-82
2023/04/23 00:50:43;;;;;;;3.50;3.20;;;;;;;19.17;46.62;98102.25;7001025;28;20724;-82
2023/04/23 00:54:06;;;;;;;3.80;2.60;;;;;;;19.10;46.74;98099.78;7004134;28;20366;-82
2023/04/23 00:57:27;;;;;;;4.63;3.00;;;;;;;19.28;46.17;98115.63;7029625;28;20201;-82
2023/04/23 01:00:50;;;;;;;3.90;3.50;;;;;;;19.20;46.84;98118.09;7029526;28;20661;-82
2023/04/23 01:04:13;;;;;;;3.17;2.87;;;;;;;19.32;46.49;98116.72;7028415;28;20270;-82
2023/04/23 01:07:35;;;;;;;4.83;2.73;;;;;;;19.44;46.30;98114.50;7029098;28;20205;-81
2023/04/23 01:10:57;;;;;;;3.70;2.53;;;;;;;19.28;47.32;98118.38;7028736;28;20302;-81
2023/04/23 01:14:19;;;;;;;3.17;2.57;;;;;;;19.01;48.96;98127.97;7030856;28;20280;-81
2023/04/23 01:17:42;;;;;;;3.73;2.87;;;;;;;18.89;49.63;98117.34;7031782;28;20292;-82
2023/04/23 01:21:04;;;;;;;3.17;2.90;;;;;;;18.97;49.52;98137.78;7031041;28;20236;-81
2023/04/23 01:24:27;;;;;;;3.40;2.90;;;;;;;19.42;48.32;98124.09;7031149;28;20226;-82
2023/04/23 01:27:49;;;;;;;2.83;2.40;;;;;;;18.78;50.32;98139.44;7033115;28;20197;-81
2023/04/23 01:31:13;;;;;;;3.47;2.47;;;;;;;18.76;51.00;98145.16;7026234;28;20225;-85
2023/04/23 01:34:35;;;;;;;6.40;3.10;;;;;;;18.95;50.57;98140.81;7004341;28;20217;-81
2023/04/23 01:37:57;;;;;;;2.97;2.30;;;;;;;18.38;52.12;98137.50;7027969;28;20291;-82
2023/04/23 01:41:20;;;;;;;3.57;2.40;;;;;;;18.82;51.83;98143.28;7004712;28;20210;-81
2023/04/23 01:44:41;;;;;;;3.27;2.50;;;;;;;18.38;52.60;98153.06;7004038;28;20240;-81
2023/04/23 01:48:03;;;;;;;3.73;2.57;;;;;;;18.54;52.25;98152.84;7005261;28;20675;-81
2023/04/23 01:51:25;;;;;;;3.03;2.70;;;;;;;18.90;50.76;98145.44;7004020;28;20249;-82
2023/04/23 01:54:47;;;;;;;3.13;2.40;;;;;;;18.43;52.40;98147.59;7006281;28;20642;-81
2023/04/23 01:58:10;;;;;;;2.90;2.40;;;;;;;18.51;52.23;98158.00;7005630;28;20205;-82
2023/04/23 02:01:42;;;;;;;4.33;2.70;;;;;;;18.15;53.56;98151.63;7004263;28;20286;-81
2023/04/23 02:05:05;;;;;;;3.33;2.60;;;;;;;18.43;53.25;98155.78;7003642;28;20220;-81
2023/04/23 02:08:27;;;;;;;4.10;2.60;;;;;;;18.06;53.59;98142.34;7004247;28;20569;-82
2023/04/23 02:11:48;;;;;;;2.90;2.70;;;;;;;18.30;54.02;98164.47;7003282;28;20234;-82
2023/04/23 02:15:12;;;;;;;2.80;2.60;;;;;;;18.64;53.02;98171.13;7003842;28;20366;-82
2023/04/23 02:18:33;;;;;;;3.63;3.03;;;;;;;18.17;54.97;98170.47;7003730;28;20206;-81
2023/04/23 02:21:55;;;;;;;3.23;2.87;;;;;;;18.16;54.71;98172.34;7002661;28;20227;-82
2023/04/23 02:25:20;;;;;;;3.53;2.70;;;;;;;17.84;55.18;98149.91;7023439;28;20379;-81
2023/04/23 02:28:42;;;;;;;3.37;2.63;;;;;;;18.47;53.84;98181.47;7014732;28;20205;-81
2023/04/23 02:32:05;;;;;;;5.20;3.00;;;;;;;18.57;54.01;98189.69;7018181;28;20331;-81
2023/04/23 02:35:26;;;;;;;4.07;2.73;;;;;;;18.71;54.07;98174.41;7031287;28;20553;-81
2023/04/23 02:38:49;;;;;;;3.53;2.63;;;;;;;18.36;55.47;98186.09;7023627;28;20237;-81
2023/04/23 02:42:11;;;;;;;3.10;2.80;;;;;;;18.37;55.24;98174.09;7003043;28;20280;-81
2023/04/23 02:45:32;;;;;;;3.00;2.80;;;;;;;18.25;55.34;98140.75;7003780;28;20359;-81
2023/04/23 02:48:55;;;;;;;3.37;2.87;;;;;;;18.21;55.88;98157.94;7007687;28;20214;-81
2023/04/23 02:52:17;;;;;;;3.03;2.73;;;;;;;18.05;56.29;98169.88;7030773;28;20300;-82
2023/04/23 02:55:38;;;;;;;2.80;2.60;;;;;;;18.18;56.16;98169.38;7031401;28;20268;-82
2023/04/23 02:59:00;;;;;;;3.17;2.87;;;;;;;18.60;55.74;98172.75;7031518;28;20240;-81
2023/04/23 03:02:22;;;;;;;4.53;2.73;;;;;;;18.73;55.10;98155.81;7031211;28;20197;-82
2023/04/23 03:05:45;;;;;;;6.00;3.10;;;;;;;18.82;54.83;98174.13;7031055;28;20315;-81
2023/04/23 03:09:06;;;;;;;3.37;3.00;;;;;;;18.49;55.82;98176.56;7030867;28;20610;-82
2023/04/23 03:12:28;;;;;;;3.40;3.07;;;;;;;18.58;54.81;98164.81;7030213;28;20225;-81
2023/04/23 03:15:50;;;;;;;3.10;2.80;;;;;;;18.62;54.98;98181.47;7031651;28;20362;-81
2023/04/23 03:19:12;;;;;;;3.27;3.07;;;;;;;17.65;57.57;98158.81;7032848;28;20295;-83
2023/04/23 03:22:35;;;;;;;3.47;3.17;;;;;;;17.95;57.35;98181.56;7030490;28;20205;-82
2023/04/23 03:25:56;;;;;;;5.37;3.40;;;;;;;18.09;57.08;98173.69;7025590;28;20236;-82
2023/04/23 03:29:18;;;;;;;3.23;3.00;;;;;;;18.02;57.60;98162.22;7002473;28;20593;-82
2023/04/23 03:32:39;;;;;;;5.10;3.63;;;;;;;18.15;57.32;98172.63;7001101;28;20281;-82
2023/04/23 03:36:01;;;;;;;3.83;3.33;;;;;;;17.78;57.29;98112.78;7002432;28;20721;-82
2023/04/23 03:39:24;;;;;;;5.00;3.30;;;;;;;17.65;58.28;98140.56;7015855;28;20296;-82
2023/04/23 03:42:45;;;;;;;3.63;3.33;;;;;;;17.88;58.53;98142.78;7029157;28;20209;-82
2023/04/23 03:46:07;;;;;;;4.03;3.20;;;;;;;17.64;58.25;98119.00;7029608;28;20237;-82
2023/04/23 03:49:28;;;;;;;3.90;3.17;;;;;;;17.94;58.64;98144.47;7029779;28;20324;-82
2023/04/23 03:52:50;;;;;;;3.97;3.03;;;;;;;17.91;58.08;98158.63;7028795;28;20233;-82
2023/04/23 03:56:13;;;;;;;4.53;3.20;;;;;;;17.66;59.03;98160.44;7024591;28;20205;-82
2023/04/23 03:59:34;;;;;;;3.63;3.33;;;;;;;17.54;58.04;98116.22;7031309;28;20205;-82
2023/04/23 04:02:56;;;;;;;3.30;3.00;;;;;;;17.84;57.65;98168.97;7029510;28;20215;-82
2023/04/23 04:06:17;;;;;;;3.30;3.00;;;;;;;17.91;57.14;98169.56;7031033;28;20702;-82
2023/04/23 04:09:39;;;;;;;6.73;3.10;;;;;;;17.99;56.53;98165.50;7012029;28;20293;-82
2023/04/23 04:13:02;;;;;;;3.03;2.73;;;;;;;17.67;57.54;98172.97;7004172;28;20217;-82
2023/04/23 04:16:23;;;;;;;4.60;3.10;;;;;;;17.37;58.15;98159.16;7005377;28;20293;-82
2023/04/23 04:19:45;;;;;;;2.60;2.40;;;;;;;17.53;58.30;98196.34;7004091;28;20292;-81
2023/04/23 04:23:06;;;;;;;4.40;2.40;;;;;;;17.49;57.42;98163.38;7032451;28;20185;-82
2023/04/23 04:26:28;;;;;;;3.73;2.53;;;;;;;17.59;57.43;98187.97;7032111;28;20205;-82
2023/04/23 04:29:51;;;;;;;5.53;2.87;;;;;;;17.66;57.84;98169.44;7031617;28;20216;-82
2023/04/23 04:33:13;;;;;;;2.43;2.23;;;;;;;17.69;57.11;98174.34;7031238;28;20228;-82
2023/04/23 04:36:35;;;;;;;3.37;2.47;;;;;;;17.75;57.03;98170.56;7032013;28;20221;-82
2023/04/23 04:40:00;;;;;;;2.80;2.50;;;;;;;17.69;57.06;98170.81;7030572;28;20268;-82
2023/04/23 04:43:21;;;;;;;3.73;2.40;;;;;;;17.76;57.06;98190.50;7031791;28;20225;-81
2023/04/23 04:46:44;;;;;;;2.70;2.50;;;;;;;17.56;57.82;98198.53;7036772;28;20224;-82
2023/04/23 04:50:07;;;;;;;3.73;2.93;;;;;;;17.59;58.24;98196.13;7036511;28;20201;-82
2023/04/23 04:53:29;;;;;;;3.10;2.80;;;;;;;17.71;58.00;98195.91;7037022;28;20278;-82
2023/04/23 04:56:50;;;;;;;3.67;2.90;;;;;;;17.84;57.04;98187.25;7032098;28;20301;-80
2023/04/23 05:00:23;;;;;;;2.97;2.77;;;;;;;17.76;57.29;98190.50;7034068;28;20197;-81
2023/04/23 05:03:46;;;;;;;2.90;2.60;;;;;;;17.96;56.96;98188.66;7014305;28;20312;-81
2023/04/23 05:07:08;;;;;;;3.53;2.80;;;;;;;17.81;56.82;98185.88;7009021;28;20218;-82
2023/04/23 05:10:29;;;;;;;3.23;2.83;;;;;;;17.85;56.82;98167.91;7009996;28;20676;-82
2023/04/23 05:13:51;;;;;;;2.80;2.60;;;;;;;18.16;56.10;98177.81;7007686;28;20293;-80
2023/04/23 05:17:13;;;;;;;2.93;2.73;;;;;;;17.88;57.01;98189.16;7007990;28;20273;-82
2023/04/23 05:20:36;;;;;;;2.93;2.73;;;;;;;17.85;56.99;98173.34;7008419;28;20186;-82
2023/04/23 05:23:58;;;;;;;3.00;2.70;;;;;;;18.05;56.47;98197.16;7008272;28;20238;-82
2023/04/23 05:27:19;;;;;;;4.27;3.00;;;;;;;18.06;56.83;98191.44;7008882;28;20206;-82
2023/04/23 05:30:41;;;;;;;6.10;3.10;;;;;;;18.16;56.72;98186.00;7007885;28;20266;-82
2023/04/23 05:34:02;;;;;;;3.37;3.07;;;;;;;18.21;56.92;98185.22;7007442;28;20295;-82
2023/04/23 05:37:25;;;;;;;3.80;2.80;;;;;;;18.33;56.12;98183.91;7036246;28;20278;-82
2023/04/23 05:40:47;;;;;;;2.60;2.40;;;;;;;18.20;55.95;98184.38;7035078;28;20270;-82
2023/04/23 05:44:09;;;;;;;2.80;2.60;;;;;;;18.14;56.11;98154.63;7007300;28;20304;-81
2023/04/23 05:47:31;;;;;;;2.77;2.57;;;;;;;18.34;56.08;98165.63;7007815;28;20217;-82
2023/04/23 05:50:52;;;;;;;2.90;2.70;;;;;;;18.31;55.84;98157.94;7007754;28;20289;-82
2023/04/23 05:54:15;;;;;;;2.70;2.50;;;;;;;18.68;54.99;98180.41;7007018;28;20306;-82
2023/04/23 05:57:37;;;;;;;2.97;2.47;;;;;;;18.56;54.38;98188.84;7007288;28;20284;-82
2023/04/23 06:00:59;;;;;;;1.60;1.50;;;;;;;18.58;53.88;98175.75;7007311;28;20360;-82
2023/04/23 06:04:21;;;;;;;2.70;1.87;;;;;;;18.63;53.03;98164.03;7007580;28;20269;-82
2023/04/23 06:07:42;;;;;;;1.90;1.80;;;;;;;18.49;54.41;98198.41;7007862;28;20362;-82
2023/04/23 06:11:05;;;;;;;3.57;2.03;;;;;;;18.55;53.53;98143.53;7008284;28;20294;-82
2023/04/23 06:14:26;;;;;;;2.10;2.00;;;;;;;19.35;52.18;98198.16;7007080;28;20291;-81
2023/04/23 06:17:48;;;;;;;4.70;4.20;;;;;;;19.01;51.96;98144.34;7008292;28;20305;-82
2023/04/23 06:21:09;;;;;;;3.77;2.40;;;;;;;19.36;51.10;98156.09;7007124;28;20657;-83
2023/04/23 06:24:31;;;;;;;2.37;2.00;;;;;;;19.76;50.67;98182.50;7007521;28;20681;-84
2023/04/23 06:27:56;;;;;;;2.67;1.73;;;;;;;20.04;49.22;98192.81;7007991;28;20285;-81
2023/04/23 06:31:18;;;;;;;2.20;2.00;;;;;;;20.13;48.55;98182.94;7007273;28;20210;-80
2023/04/23 06:34:39;;;;;;;3.73;2.10;;;;;;;19.91;49.83;98194.22;7005856;28;20445;-80
2023/04/23 06:38:01;;;;;;;2.07;1.90;;;;;;;19.92;49.32;98190.38;7007386;28;20676;-81
2023/04/23 06:41:22;;;;;;;2.10;1.80;;;;;;;19.85;50.31;98170.69;7006522;28;20271;-81
2023/04/23 06:44:47;;;;;;;1.80;1.70;;;;;;;20.28;48.69;98183.66;7005335;28;20234;-84
2023/04/23 06:48:08;;;;;;;2.47;2.00;;;;;;;20.00;48.64;98172.56;7011344;28;20219;-83
2023/04/23 06:51:30;;;;;;;2.63;1.80;;;;;;;19.98;47.75;98147.41;7024522;28;20734;-81
2023/04/23 06:54:52;;;;;;;1.97;1.87;;;;;;;19.17;50.28;98157.72;7020901;28;20230;-82
2023/04/23 06:58:13;;;;;;;1.60;1.50;;;;;;;19.76;49.42;98166.09;7019596;28;20667;-82
2023/04/23 07:01:36;;;;;;;2.00;1.90;;;;;;;19.48;49.67;98091.00;7017819;28;20229;-82
2023/04/23 07:04:58;;;;;;;1.83;1.73;;;;;;;20.19;48.96;98155.25;7016550;28;20284;-82
2023/04/23 07:08:20;;;;;;;2.20;1.50;;;;;;;20.55;47.73;98164.06;7026065;28;20683;-81
2023/04/23 07:11:42;;;;;;;1.93;1.80;;;;;;;20.28;47.81;98163.69;7009982;28;20238;-81
2023/04/23 07:15:04;;;;;;;1.83;1.70;;;;;;;19.90;48.04;98137.84;7034500;28;20345;-80
2023/04/23 07:18:27;;;;;;;1.70;1.60;;;;;;;20.72;47.91;98151.63;7010004;28;20698;-81
2023/04/23 07:21:48;;;;;;;2.13;1.70;;;;;;;21.03;46.25;98144.81;7009580;28;20235;-81
2023/04/23 07:25:10;;;;;;;1.80;1.70;;;;;;;21.73;45.18;98152.34;7006424;28;20773;-81
2023/04/23 07:28:32;;;;;;;1.70;1.60;;;;;;;21.78;44.85;98135.81;7005811;28;20207;-82
2023/04/23 07:31:53;;;;;;;1.47;1.40;;;;;;;21.86;43.68;98136.00;7006688;28;20227;-81
2023/04/23 07:35:16;;;;;;;2.47;1.47;;;;;;;20.69;45.83;98061.78;7006401;28;20311;-81
2023/04/23 07:38:37;;;;;;;1.70;1.60;;;;;;;20.83;46.19;98147.69;7007423;28;20849;-81
2023/04/23 07:42:00;;;;;;;1.80;1.70;;;;;;;21.29;44.45;98146.19;7033379;28;20303;-81
2023/04/23 07:45:22;;;;;;;2.73;2.00;;;;;;;21.34;44.64;98137.91;7022285;28;20225;-82
2023/04/23 07:48:43;;;;;;;2.27;1.50;;;;;;;21.44;43.89;98148.78;7013535;28;20201;-82
2023/04/23 07:52:07;;;;;;;1.30;1.30;;;;;;;21.76;42.92;98113.31;7051173;28;20231;-81
2023/04/23 07:55:28;;;;;;;2.37;1.70;;;;;;;22.77;40.88;98141.03;7051411;28;20228;-81
2023/04/23 07:58:50;;;;;;;1.60;1.50;;;;;;;22.34;40.50;98123.78;7042626;28;20230;-81
2023/04/23 08:02:11;;;;;;;2.00;1.40;;;;;;;22.35;40.98;98132.84;7040083;28;20277;-81
2023/04/23 08:05:33;;;;;;;1.53;1.43;;;;;;;22.82;39.81;98121.69;7039296;28;20288;-81
2023/04/23 08:08:56;;;;;;;1.40;1.40;;;;;;;22.47;40.52;98127.75;7038109;28;20292;-81
2023/04/23 08:12:19;;;;;;;1.90;1.57;;;;;;;23.28;39.13;98106.88;7037407;28;20309;-81
2023/04/23 08:15:41;;;;;;;1.70;1.60;;;;;;;23.48;39.08;98113.94;7039013;28;20703;-81
2023/04/23 08:19:03;;;;;;;1.57;1.23;;;;;;;23.48;37.29;98117.50;7038499;28;20666;-81
2023/04/23 08:22:25;;;;;;;1.53;1.17;;;;;;;23.99;36.75;98104.38;7038623;28;20227;-81
2023/04/23 08:25:48;;;;;;;1.70;1.60;;;;;;;23.20;36.62;98104.03;7026469;28;20229;-81
2023/04/23 08:29:09;;;;;;;1.50;1.40;;;;;;;22.70;37.97;98102.09;7005637;28;20297;-82
2023/04/23 08:32:31;;;;;;;1.70;1.53;;;;;;;22.77;38.13;98106.09;7026390;28;20709;-82
2023/04/23 08:35:52;;;;;;;2.07;1.83;;;;;;;23.39;36.78;98082.75;7048154;28;20707;-81
2023/04/23 08:39:16;;;;;;;1.53;1.43;;;;;;;24.05;36.34;98074.78;7024806;28;20674;-82
2023/04/23 08:42:45;;;;;;;2.73;1.43;;;;;;;23.93;35.79;98080.81;7016113;28;20218;-81
2023/04/23 08:46:10;;;;;;;1.80;1.67;;;;;;;23.13;36.29;98090.63;7012142;28;20820;-80
2023/04/23 08:49:34;;;;;;;2.63;1.80;;;;;;;23.01;37.50;98089.50;7010826;28;20197;-82
2023/04/23 08:52:57;;;;;;;2.47;1.73;;;;;;;24.09;35.77;98076.63;7012616;28;20228;-82
2023/04/23 08:56:20;;;;;;;1.97;1.80;;;;;;;23.97;36.12;98065.31;7011448;28;20233;-82
2023/04/23 08:59:44;;;;;;;1.77;1.67;;;;;;;24.46;35.50;98065.28;7009910;28;20206;-82
2023/04/23 09:03:05;;;;;;;2.67;1.50;;;;;;;24.73;35.07;98045.06;7008514;28;20233;-81
2023/04/23 09:06:27;;;;;;;1.70;1.60;;;;;;;24.62;35.46;98074.84;7009418;28;20252;-81
2023/04/23 09:09:49;;;;;;;1.43;1.33;;;;;;;23.59;36.16;98082.34;7009988;28;20206;-82
2023/04/23 09:13:12;;;;;;;1.70;1.60;;;;;;;24.10;36.64;98069.16;7008374;28;20319;-82
2023/04/23 09:16:35;;;;;;;3.80;2.30;;;;;;;24.91;34.68;98057.84;7008792;28;20205;-81
2023/04/23 09:19:58;;;;;;;1.57;1.33;;;;;;;24.84;33.26;98063.00;7008132;28;20244;-82
2023/04/23 09:23:21;;;;;;;2.53;1.50;;;;;;;23.69;35.79;98066.44;7007380;28;20246;-81
2023/04/23 09:26:47;;;;;;;1.70;1.40;;;;;;;24.79;33.77;98052.88;7007953;28;20709;-81
2023/04/23 09:30:11;;;;;;;1.60;1.50;;;;;;;23.64;35.04;98044.53;7008775;28;20229;-82
2023/04/23 09:33:36;;;;;;;6.67;1.93;;;;;;;24.19;34.57;98031.50;7014792;28;20228;-82
2023/04/23 09:36:59;;;;;;;1.60;1.50;;;;;;;23.93;33.34;97980.88;7013712;28;20202;-82
2023/04/23 09:40:23;;;;;;;1.30;1.20;;;;;;;24.10;34.71;98027.84;7011691;28;20785;-82
2023/04/23 09:43:47;;;;;;;2.30;1.60;;;;;;;23.68;34.70;98025.44;7011698;28;20229;-81
2023/04/23 09:47:10;;;;;;;1.57;1.47;;;;;;;24.54;32.99;98000.31;7011385;28;20205;-81
2023/04/23 09:50:35;;;;;;;1.50;1.40;;;;;;;24.63;33.27;98035.13;7012344;28;20201;-82
2023/04/23 09:53:57;;;;;;;1.60;1.50;;;;;;;24.51;34.20;98029.31;7010786;28;20239;-82
2023/04/23 09:57:19;;;;;;;1.83;1.63;;;;;;;24.97;32.02;98018.78;7037659;28;20208;-82
2023/04/23 10:00:41;;;;;;;1.53;1.33;;;;;;;24.94;32.73;97982.72;7038440;28;20342;-82
2023/04/23 10:04:03;;;;;;;1.70;1.07;;;;;;;24.30;33.79;98022.66;7038530;28;20233;-82
2023/04/23 10:07:26;;;;;;;1.20;1.17;;;;;;;25.40;32.74;97997.72;7050583;28;20657;-82
2023/04/23 10:10:47;;;;;;;2.13;1.33;;;;;;;24.98;33.55;97992.00;7055623;28;20196;-88
2023/04/23 10:14:09;;;;;;;1.90;1.80;;;;;;;25.70;32.68;97988.56;7033404;28;20253;-83
2023/04/23 10:17:31;;;;;;;2.10;1.40;;;;;;;25.31;32.05;97972.03;7037706;28;20252;-87
2023/04/23 10:20:53;;;;;;;1.90;1.80;;;;;;;24.74;32.92;97994.31;7069138;28;20200;-85
2023/04/23 10:24:19;;;;;;;1.83;1.50;;;;;;;25.01;32.78;97963.81;7066208;28;20303;-86
2023/04/23 10:27:41;;;;;;;1.57;1.47;;;;;;;25.51;32.55;97963.19;7068440;28;20192;-84
2023/04/23 10:31:03;;;;;;;1.10;1.10;;;;;;;25.69;30.18;97966.78;7042805;28;20203;-86
2023/04/23 10:34:26;;;;;;;1.87;1.10;;;;;;;24.22;32.53;97920.66;7020669;28;20238;-85
2023/04/23 10:37:48;;;;;;;3.87;2.00;;;;;;;24.71;32.95;97948.88;7009776;28;20241;-85
2023/04/23 10:41:13;;;;;;;2.83;2.17;;;;;;;25.05;31.27;97968.34;7009302;28;20293;-86
2023/04/23 10:44:37;;;;;;;1.30;1.20;;;;;;;24.98;29.93;97958.91;7017997;28;20267;-83
2023/04/23 10:47:58;;;;;;;1.97;0.97;;;;;;;24.52;32.13;97966.72;7038924;28;20208;-83
2023/04/23 10:51:20;;;;;;;1.80;1.20;;;;;;;24.90;31.14;97959.69;7039260;28;20192;-83
2023/04/23 10:54:42;;;;;;;1.30;1.20;;;;;;;26.01;28.25;97939.53;7038652;28;20315;-83
2023/04/23 10:58:07;;;;;;;2.37;1.30;;;;;;;26.09;28.39;97929.63;7037426;28;20293;-85
2023/04/23 11:01:29;;;;;;;1.30;1.20;;;;;;;25.71;28.13;97901.81;7034819;28;20193;-86
2023/04/23 11:04:55;;;;;;;1.13;1.13;;;;;;;26.30;28.35;97933.34;7034979;28;20697;-85
2023/04/23 11:08:17;;;;;;;1.03;1.00;;;;;;;25.62;29.52;97936.91;7035865;28;20203;-85
2023/04/23 11:11:40;;;;;;;2.20;1.27;;;;;;;24.73;29.42;97836.31;7010411;28;20265;-83
2023/04/23 11:15:11;;;;;;;1.37;1.17;;;;;;;26.31;28.15;97919.19;7006367;28;20331;-83
2023/04/23 11:18:54;;;;;;;2.20;1.47;;;;;;;26.56;27.50;97907.31;7007919;28;20231;-82
2023/04/23 11:22:18;;;;;;;1.00;1.00;;;;;;;25.31;29.88;97899.50;7008986;28;20699;-82
2023/04/23 11:25:42;;;;;;;2.17;1.10;;;;;;;26.19;28.71;97896.94;7009346;28;20811;-82
2023/04/23 11:29:06;;;;;;;1.33;1.10;;;;;;;25.93;28.65;97915.50;7035036;28;20635;-82
2023/04/23 11:32:28;;;;;;;1.27;1.10;;;;;;;26.36;29.21;97910.72;7036304;28;20234;-82
2023/04/23 11:35:50;;;;;;;1.20;1.20;;;;;;;26.66;28.43;97892.31;7026612;28;20291;-82
2023/04/23 11:39:12;;;;;;;1.27;1.20;;;;;;;26.68;28.15;97906.63;7009661;28;20217;-82
2023/04/23 11:42:41;;;;;;;1.27;1.10;;;;;;;25.62;29.67;97906.53;7006985;28;20209;-82
2023/04/23 11:46:02;;;;;;;0.97;0.90;;;;;;;25.73;28.95;97882.16;7007334;28;20229;-82
2023/04/23 11:49:25;;;;;;;1.13;0.93;;;;;;;25.88;29.35;97895.47;7005413;28;20283;-82
2023/04/23 11:52:47;;;;;;;1.20;1.10;;;;;;;26.04;30.08;97891.94;7005416;28;20323;-83
2023/04/23 11:56:09;;;;;;;1.10;1.07;;;;;;;25.87;28.69;97816.50;7009190;28;20283;-82
2023/04/23 11:59:30;;;;;;;1.13;1.13;;;;;;;26.67;28.20;97853.25;7006597;28;20202;-82
2023/04/23 12:02:56;;;;;;;1.40;1.30;;;;;;;27.27;27.45;97859.31;7028557;28;20202;-82
2023/04/23 12:06:19;;;;;;;1.30;1.20;;;;;;;27.30;27.34;97858.63;7033939;28;20209;-82
2023/04/23 12:09:41;;;;;;;1.00;0.90;;;;;;;26.71;27.92;97843.16;7032729;28;20351;-82
2023/04/23 12:13:03;;;;;;;2.10;1.23;;;;;;;27.49;27.41;97838.81;7033630;28;20317;-83
2023/04/23 12:16:37;;;;;;;1.17;1.13;;;;;;;25.91;29.58;97837.69;7037894;28;20317;-82
2023/04/23 12:19:59;;;;;;;2.20;1.23;;;;;;;25.66;31.05;97835.69;7025153;28;20198;-82
2023/04/23 12:23:27;;;;;;;2.07;1.20;;;;;;;25.95;29.71;97824.03;7005709;28;20645;-82
2023/04/23 12:26:53;;;;;;;2.30;1.20;;;;;;;26.14;29.30;97827.22;7027393;28;20775;-82
2023/04/23 12:30:15;;;;;;;2.00;1.13;;;;;;;26.30;29.27;97825.56;7009349;28;20255;-81
2023/04/23 12:33:36;;;;;;;2.00;1.37;;;;;;;26.36;28.81;97808.44;7017486;28;20230;-83
2023/04/23 12:36:58;;;;;;;1.07;0.97;;;;;;;25.76;29.96;97818.81;7016522;28;20244;-83
2023/04/23 12:40:21;;;;;;;1.53;1.20;;;;;;;25.97;29.64;97764.56;7010014;28;20232;-82
2023/04/23 12:43:47;;;;;;;2.20;1.20;;;;;;;26.16;29.61;97787.06;7024820;28;20212;-82
2023/04/23 12:47:10;;;;;;;0.90;0.90;;;;;;;26.07;29.89;97782.72;7003788;28;20324;-83
2023/04/23 12:50:31;;;;;;;1.20;1.20;;;;;;;26.87;28.56;97788.91;7003713;28;20210;-82
2023/04/23 12:53:53;;;;;;;1.30;1.20;;;;;;;27.21;27.15;97785.94;7002993;28;20295;-82
2023/04/23 12:57:20;;;;;;;1.40;1.30;;;;;;;26.62;27.54;97762.19;7009699;28;20703;-82
2023/04/23 13:00:42;;;;;;;1.30;1.20;;;;;;;26.85;27.97;97768.25;7004490;28;20184;-82
2023/04/23 13:04:03;;;;;;;1.17;1.17;;;;;;;26.50;29.18;97772.31;7023389;28;20309;-83
2023/04/23 13:07:25;;;;;;;1.20;1.20;;;;;;;25.96;29.11;97765.66;7026103;28;20209;-82
2023/04/23 13:10:46;;;;;;;1.30;1.20;;;;;;;25.76;29.04;97749.78;7036624;28;20350;-81
2023/04/23 13:14:09;;;;;;;1.77;1.20;;;;;;;23.97;31.79;97737.63;7015676;28;20261;-82
2023/04/23 13:17:31;;;;;;;1.43;1.33;;;;;;;25.62;28.90;97696.69;7008011;28;20311;-82
2023/04/23 13:20:52;;;;;;;2.23;1.50;;;;;;;26.79;28.20;97726.13;7006715;28;20300;-82
2023/04/23 13:24:14;;;;;;;1.30;1.20;;;;;;;26.86;27.61;97734.72;7007354;28;20317;-83
2023/04/23 13:27:35;;;;;;;1.20;1.20;;;;;;;26.88;26.68;97698.41;7007895;28;20229;-82
2023/04/23 13:30:58;;;;;;;1.27;1.17;;;;;;;27.20;26.72;97709.56;7008227;28;20206;-84
2023/04/23 13:34:20;;;;;;;0.93;0.93;;;;;;;27.47;25.60;97710.94;7007783;28;20252;-83
2023/04/23 13:37:41;;;;;;;0.93;0.93;;;;;;;26.73;27.47;97691.50;7008097;28;20214;-86
2023/04/23 13:41:03;;;;;;;1.60;1.03;;;;;;;25.98;27.79;97641.03;7007714;28;20199;-82
2023/04/23 13:44:24;;;;;;;1.10;1.10;;;;;;;25.75;27.88;97639.63;7006775;28;20367;-82
2023/04/23 13:47:47;;;;;;;1.77;1.40;;;;;;;26.36;28.16;97681.31;7023170;28;20213;-82
2023/04/23 13:51:09;;;;;;;1.37;1.20;;;;;;;26.38;28.62;97658.88;7015629;28;20214;-81
2023/04/23 13:54:30;;;;;;;1.30;1.30;;;;;;;26.08;29.24;97673.81;7014595;28;20318;-82
2023/04/23 13:57:56;;;;;;;1.30;1.20;;;;;;;26.14;28.98;97670.53;7024094;28;20224;-81
2023/04/23 14:01:18;;;;;;;1.03;1.03;;;;;;;25.50;29.58;97665.38;7037505;28;20197;-81
2023/04/23 14:04:41;;;;;;;1.33;1.00;;;;;;;24.83;29.48;97636.72;7046315;28;20225;-82
2023/04/23 14:08:02;;;;;;;1.30;1.30;;;;;;;25.26;29.03;97649.34;7038014;28;20298;-81
2023/04/23 14:11:24;;;;;;;1.30;1.20;;;;;;;25.33;30.33;97635.06;7022379;28;20346;-81
2023/04/23 14:14:45;;;;;;;1.33;1.23;;;;;;;25.82;29.49;97646.28;7027519;28;20316;-81
2023/04/23 14:18:07;;;;;;;1.30;1.20;;;;;;;25.60;30.05;97615.34;7038440;28;20347;-82
2023/04/23 14:21:29;;;;;;;1.50;1.40;;;;;;;26.25;29.22;97621.22;7039817;28;20250;-81
2023/04/23 14:24:56;;;;;;;1.30;1.20;;;;;;;26.01;28.97;97619.06;7040690;28;20324;-80
2023/04/23 14:28:28;;;;;;;3.60;1.30;;;;;;;25.88;29.33;97586.94;7015290;28;20230;-80
2023/04/23 14:31:49;;;;;;;1.43;1.33;;;;;;;26.14;28.93;97609.72;7016515;28;20222;-84
2023/04/23 14:35:12;;;;;;;1.23;1.13;;;;;;;26.05;28.45;97603.47;7023515;28;20324;-83
2023/04/23 14:38:35;;;;;;;2.00;1.23;;;;;;;26.60;27.53;97590.25;7013400;28;20203;-81
2023/04/23 14:41:56;;;;;;;1.30;1.30;;;;;;;26.36;27.75;97587.31;7020929;28;20669;-84
2023/04/23 14:45:18;;;;;;;1.23;1.13;;;;;;;25.98;28.33;97589.38;7010817;28;20225;-80
2023/04/23 14:48:39;;;;;;;1.90;1.60;;;;;;;25.74;28.51;97580.03;7010606;28;20697;-82
2023/04/23 14:52:02;;;;;;;92.20;40.10;;;;;;;25.76;28.69;97562.00;7032052;28;20213;-84
2023/04/23 14:55:25;;;;;;;3.60;3.30;;;;;;;25.60;29.05;97525.03;7018641;28;20274;-82
2023/04/23 14:58:47;;;;;;;1.10;1.10;;;;;;;25.95;27.43;97558.84;7033168;28;20792;-81
2023/04/23 15:02:10;;;;;;;1.20;1.20;;;;;;;25.74;28.07;97558.78;7032877;28;20341;-80
2023/04/23 15:05:32;;;;;;;1.67;1.50;;;;;;;25.83;27.42;97564.25;7033747;28;20229;-80
2023/04/23 15:08:53;;;;;;;4.33;1.30;;;;;;;25.10;27.76;97465.34;7033388;28;20288;-80
2023/04/23 15:12:38;;;;;;;2.10;1.43;;;;;;;25.35;28.00;97544.47;7032405;28;20262;-80
2023/04/23 15:16:02;;;;;;;1.80;1.30;;;;;;;25.48;28.44;97560.81;7008668;28;20253;-82
2023/04/23 15:19:24;;;;;;;3.90;1.50;;;;;;;25.06;29.11;97552.63;7024807;28;20299;-83
2023/04/23 15:22:46;;;;;;;1.60;1.50;;;;;;;25.71;28.77;97537.31;7033576;28;20250;-81
2023/04/23 15:26:08;;;;;;;1.37;1.27;;;;;;;26.18;27.01;97546.34;7033175;28;20221;-82
2023/04/23 15:29:31;;;;;;;2.30;1.13;;;;;;;25.89;27.27;97530.56;7039219;28;20214;-81
2023/04/23 15:32:54;;;;;;;1.80;1.40;;;;;;;25.95;28.64;97537.53;7034979;28;20193;-81
2023/04/23 15:36:15;;;;;;;1.20;1.17;;;;;;;26.08;28.72;97519.91;7008177;28;20250;-81
2023/04/23 15:39:37;;;;;;;1.63;1.23;;;;;;;26.28;28.66;97524.66;7012353;28;20669;-82
2023/04/23 15:42:58;;;;;;;1.50;1.40;;;;;;;26.53;28.27;97542.97;7004777;28;20205;-81
2023/04/23 15:46:21;;;;;;;1.33;1.07;;;;;;;26.47;28.04;97541.56;7004501;28;20236;-83
2023/04/23 15:49:43;;;;;;;2.30;1.27;;;;;;;26.57;27.61;97543.94;7026905;28;20203;-80
2023/04/23 15:53:04;;;;;;;1.30;1.20;;;;;;;25.55;28.55;97543.75;7009747;28;20295;-82